Huvudsida
METAR-TAF:

METAR-TAF

Flygplatser :

Grenchen, Schweiz

latitud: 47-10-53N, longitud: 007-24-59E, höjd: 430 m

Aktuellt väderrapport

Denna rapport gjordes för 27 minuter sedan, klockan 21:50 UTC
Vind 1 kt från väst/sydväst
Temperatur 3°C
Fuktighet 93%
Tryck 1020 hPa
Sikt: 1800 m
Mulet på en höjd av 200 ft
Mulet på en höjd av 300 ft
lätt regn

METAR: LSZG 262150Z AUTO 25001KT 1800 -RA OVC002 OVC003 03/02 Q1020

Tid: 23:17 (22:17 UTC)

Väderprognos

Denna rapport gjordes för 7 timmar och 52 minuter sedan, klockan 14:25 UTC
Prognos gäller från 26 kl. 15 UTC till 26 kl. 24 UTC
Vind 6 kt från sydväst
Sikt: 2500 m
Mulet på en höjd av 300 ft
fuktdis
Sannolikhet 40% :
Temporärt
från 26 kl. 17 UTC till 26 kl. 24 UTC
Sikt: 4000 m
Spridda moln på en höjd av 500 ft
regn

TAF: LSZG 261425Z 2615/2624 22006KT 2500 BR OVC003 PROB40 TEMPO 2617/2624 4000 RA SCT005

Aktuella väderrapporter och prognoser från 4000 flygplatser (METAR- och TAF-rapporter).

De tillgängliga stationerna syns som gula och röda prickar på kartan.

För musen över prickarna för att se namnen på stationerna.

Klicka sedan för att få väderrapporter och prognoser.

För att ändra kartan: Klicka på de gröna knapparna med ett svart kors på för att zooma in; den gröna knappen med ett streck på för att zooma ut; eller på de gröna pilarna för angränsande kartor.


METAR-TAF: